createdAt,value
2023-03-02T00:00:29.600Z,3.88
2023-03-02T00:10:49.489Z,3.95
2023-03-02T00:20:52.991Z,4.02
2023-03-02T00:30:57.006Z,3.57
2023-03-02T00:41:00.886Z,3.20
2023-03-02T00:51:07.097Z,3.65
2023-03-02T01:01:15.779Z,3.63
2023-03-02T01:11:24.504Z,3.89
2023-03-02T01:21:28.307Z,4.00
2023-03-02T01:31:32.068Z,3.92
2023-03-02T01:41:38.033Z,3.93
2023-03-02T01:51:47.322Z,4.13
2023-03-02T02:01:57.011Z,4.08
2023-03-02T02:12:05.351Z,3.75
2023-03-02T02:22:12.325Z,3.46
2023-03-02T02:32:19.336Z,3.19
2023-03-02T02:42:35.278Z,3.17
2023-03-02T02:52:41.814Z,3.24
2023-03-02T03:02:48.346Z,3.13
2023-03-02T03:12:55.585Z,2.89
2023-03-02T03:23:01.837Z,2.56
2023-03-02T03:33:11.230Z,2.23
2023-03-02T03:43:16.610Z,2.26
2023-03-02T03:53:25.243Z,2.35
2023-03-02T04:03:31.707Z,2.35
2023-03-02T04:13:37.617Z,2.41
2023-03-02T04:23:43.263Z,2.33
2023-03-02T04:33:46.950Z,2.28
2023-03-02T04:43:52.797Z,2.48
2023-03-02T04:54:01.550Z,2.66
2023-03-02T05:04:05.236Z,2.93
2023-03-02T05:14:13.430Z,3.10
2023-03-02T05:24:19.893Z,3.51
2023-03-02T05:34:23.493Z,3.67
2023-03-02T05:44:27.311Z,3.78
2023-03-02T05:54:32.911Z,3.91
2023-03-02T06:04:43.410Z,3.82
2023-03-02T06:14:48.918Z,4.08
2023-03-02T06:24:55.282Z,4.36
2023-03-02T06:35:08.561Z,4.68
2023-03-02T06:45:12.468Z,4.69
2023-03-02T06:55:16.076Z,4.91
2023-03-02T07:05:24.526Z,5.20
2023-03-02T07:15:28.245Z,5.42
2023-03-02T07:25:34.558Z,5.46
2023-03-02T07:35:38.223Z,5.68
2023-03-02T07:45:41.850Z,5.97
2023-03-02T07:55:47.894Z,6.26
2023-03-02T08:05:53.701Z,6.49
2023-03-02T08:16:03.230Z,6.79
2023-03-02T08:26:06.980Z,7.35
2023-03-02T08:36:19.372Z,7.39
2023-03-02T08:46:26.044Z,7.65
2023-03-02T08:56:32.929Z,7.82
2023-03-02T09:06:40.681Z,8.16
2023-03-02T09:16:49.352Z,8.21
2023-03-02T09:26:55.698Z,8.30
2023-03-02T09:37:00.861Z,8.52
2023-03-02T09:47:35.165Z,8.60
2023-03-02T09:57:40.251Z,7.86
2023-03-02T10:07:48.054Z,8.11
2023-03-02T10:17:57.839Z,8.21
2023-03-02T10:28:39.563Z,8.89
2023-03-02T10:38:43.865Z,8.03
2023-03-02T10:48:59.452Z,7.66
2023-03-02T10:59:57.302Z,7.69
2023-03-02T11:10:06.693Z,7.37
2023-03-02T11:20:31.127Z,7.25
2023-03-02T11:30:42.568Z,7.79
2023-03-02T11:41:02.432Z,8.23
2023-03-02T11:51:22.012Z,8.55
2023-03-02T12:01:28.908Z,9.06
2023-03-02T12:11:39.580Z,9.05
2023-03-02T12:22:00.348Z,9.13
2023-03-02T12:32:34.327Z,9.10
2023-03-02T12:43:11.831Z,8.28
2023-03-02T12:53:19.437Z,7.98
2023-03-02T13:03:23.734Z,7.80
2023-03-02T13:13:50.058Z,8.33
2023-03-02T13:23:53.791Z,8.95
2023-03-02T13:33:59.768Z,8.96
2023-03-02T13:44:20.629Z,8.87
2023-03-02T13:54:30.881Z,8.79
2023-03-02T14:04:38.448Z,8.38
2023-03-02T14:14:43.323Z,8.11
2023-03-02T14:24:48.612Z,7.85
2023-03-02T14:34:52.198Z,7.86
2023-03-02T14:44:55.820Z,7.76
2023-03-02T14:55:04.342Z,7.60
2023-03-02T15:05:08.480Z,7.63
2023-03-02T15:15:13.136Z,7.65
2023-03-02T15:25:19.428Z,7.55
2023-03-02T15:35:23.009Z,7.44
2023-03-02T15:45:31.050Z,7.34
2023-03-02T15:55:34.741Z,7.23
2023-03-02T16:05:42.087Z,7.08
2023-03-02T16:15:47.285Z,6.87
2023-03-02T16:25:54.463Z,6.73
2023-03-02T16:35:57.996Z,6.63
2023-03-02T16:46:01.677Z,6.57
2023-03-02T16:56:08.981Z,6.43
2023-03-02T17:06:15.330Z,6.33
2023-03-02T17:16:19.730Z,6.16
2023-03-02T17:26:23.736Z,5.96
2023-03-02T17:36:27.389Z,5.75
2023-03-02T17:46:33.216Z,5.55
2023-03-02T17:56:37.175Z,5.36
2023-03-02T18:06:40.832Z,5.18
2023-03-02T18:16:44.583Z,5.08
2023-03-02T18:26:48.291Z,4.92
2023-03-02T18:36:53.515Z,4.86
2023-03-02T18:46:57.608Z,4.77
2023-03-02T18:57:02.979Z,4.66
2023-03-02T19:07:07.408Z,4.61
2023-03-02T19:17:12.488Z,4.41
2023-03-02T19:27:16.269Z,4.27
2023-03-02T19:37:19.882Z,4.09
2023-03-02T19:47:25.035Z,3.98
2023-03-02T19:57:30.923Z,3.93
2023-03-02T20:07:35.274Z,3.87
2023-03-02T20:17:39.852Z,3.88
2023-03-02T20:27:45.042Z,3.78
2023-03-02T20:37:52.293Z,3.58
2023-03-02T20:47:55.994Z,3.58
2023-03-02T20:58:01.320Z,3.52
2023-03-02T21:08:05.255Z,3.55
2023-03-02T21:18:09.375Z,3.42
2023-03-02T21:28:14.643Z,3.28
2023-03-02T21:38:20.277Z,3.21
2023-03-02T21:48:23.792Z,2.72
2023-03-02T21:58:28.008Z,2.63
2023-03-02T22:08:37.659Z,2.88
2023-03-02T22:18:42.851Z,2.95
2023-03-02T22:28:46.428Z,3.05
2023-03-02T22:38:51.040Z,3.30
2023-03-02T22:48:55.166Z,3.25
2023-03-02T22:59:27.385Z,3.11
2023-03-02T23:09:36.014Z,3.07
2023-03-02T23:19:39.647Z,3.19
2023-03-02T23:29:45.069Z,3.22
2023-03-02T23:39:48.674Z,3.14
2023-03-02T23:49:52.302Z,3.12
2023-03-02T23:59:55.900Z,2.93
